Time;durP1;ratioP1;P1;durP2;ratioP2;P2;SDS_P1;SDS_P2;PMS_P1;PMS_P2;Temp;Humidity;BMP_temperature;BMP_pressure;BME280_temperature;BME280_humidity;BME280_pressure;Samples;Min_cycle;Max_cycle;Signal;HPM_P1;HPM_P2
2023/03/29 00:02:08;;;;;;;;;7.00;4.50;;;;;;;;5041334;28;14123;-74
2023/03/29 00:04:34;;;;;;;;;5.25;4.25;;;;;;;;5029228;28;13417;-73
2023/03/29 00:07:03;;;;;;;;;4.75;4.75;;;;;;;;5029115;28;13416;-74
2023/03/29 00:09:29;;;;;;;;;4.20;4.20;;;;;;;;5029354;28;14027;-73
2023/03/29 00:11:54;;;;;;;;;6.00;5.00;;;;;;;;5028808;28;13416;-74
2023/03/29 00:14:19;;;;;;;;;8.00;5.25;;;;;;;;5028800;28;13398;-74
2023/03/29 00:16:45;;;;;;;;;6.00;3.33;;;;;;;;5028959;28;13426;-74
2023/03/29 00:19:10;;;;;;;;;3.20;3.20;;;;;;;;5028864;28;13442;-73
2023/03/29 00:21:36;;;;;;;;;4.50;4.50;;;;;;;;5028853;28;13416;-73
2023/03/29 00:24:01;;;;;;;;;6.00;5.00;;;;;;;;5028814;28;13449;-72
2023/03/29 00:26:26;;;;;;;;;4.33;4.33;;;;;;;;5028860;28;13463;-73
2023/03/29 00:28:51;;;;;;;;;5.33;5.33;;;;;;;;5028598;28;13374;-73
2023/03/29 00:31:17;;;;;;;;;4.00;4.00;;;;;;;;5028259;28;14199;-73
2023/03/29 00:33:42;;;;;;;;;4.75;4.75;;;;;;;;5028420;28;13479;-73
2023/03/29 00:36:09;;;;;;;;;5.00;5.00;;;;;;;;5010811;28;13415;-74
2023/03/29 00:38:34;;;;;;;;;3.50;3.50;;;;;;;;5027477;28;13377;-74
2023/03/29 00:41:00;;;;;;;;;4.00;4.00;;;;;;;;5028654;28;13515;-74
2023/03/29 00:43:25;;;;;;;;;6.50;4.00;;;;;;;;5028626;28;13536;-75
2023/03/29 00:45:51;;;;;;;;;5.67;4.00;;;;;;;;5028162;28;13572;-74
2023/03/29 00:48:19;;;;;;;;;6.00;4.00;;;;;;;;5028229;28;13376;-73
2023/03/29 00:51:04;;;;;;;;;5.00;5.00;;;;;;;;5028314;28;14092;-73
2023/03/29 00:53:34;;;;;;;;;3.60;3.60;;;;;;;;5028593;28;13640;-73
2023/03/29 00:56:12;;;;;;;;;2.40;2.40;;;;;;;;5028177;28;13437;-73
2023/03/29 00:58:44;;;;;;;;;3.20;3.20;;;;;;;;4997035;28;13574;-73
2023/03/29 01:01:15;;;;;;;;;4.75;4.75;;;;;;;;5008226;28;13576;-75
2023/03/29 01:03:49;;;;;;;;;4.00;4.00;;;;;;;;5008113;28;13583;-75
2023/03/29 01:06:17;;;;;;;;;6.00;5.00;;;;;;;;5008619;28;13581;-74
2023/03/29 01:08:46;;;;;;;;;4.00;4.00;;;;;;;;5008509;28;13687;-75
2023/03/29 01:11:16;;;;;;;;;5.40;4.00;;;;;;;;5007693;28;14310;-75
2023/03/29 01:13:50;;;;;;;;;5.50;4.50;;;;;;;;5007812;28;13598;-75
2023/03/29 01:16:18;;;;;;;;;5.00;5.00;;;;;;;;5007411;28;13514;-74
2023/03/29 01:18:45;;;;;;;;;4.00;4.00;;;;;;;;5007800;28;13470;-75
2023/03/29 01:21:18;;;;;;;;;5.40;4.40;;;;;;;;5007184;28;13618;-75
2023/03/29 01:23:44;;;;;;;;;9.00;5.00;;;;;;;;5007942;28;13516;-74
2023/03/29 01:26:26;;;;;;;;;4.00;2.50;;;;;;;;5008847;28;14355;-74
2023/03/29 01:28:56;;;;;;;;;3.60;2.80;;;;;;;;5007505;28;13485;-73
2023/03/29 01:31:33;;;;;;;;;3.50;3.50;;;;;;;;5007727;28;13398;-74
2023/03/29 01:34:28;;;;;;;;;2.00;2.00;;;;;;;;5005328;28;13386;-73
2023/03/29 01:37:00;;;;;;;;;2.00;2.00;;;;;;;;4976096;28;13528;-74
2023/03/29 01:39:25;;;;;;;;;6.00;2.00;;;;;;;;4975771;28;13499;-74
2023/03/29 01:41:57;;;;;;;;;4.00;4.00;;;;;;;;4974508;28;14180;-75
2023/03/29 01:44:42;;;;;;;;;4.75;4.75;;;;;;;;4975334;28;13730;-73
2023/03/29 01:47:26;;;;;;;;;4.00;4.00;;;;;;;;4974828;28;14360;-73
2023/03/29 01:49:57;;;;;;;;;3.60;3.20;;;;;;;;4958154;28;14292;-73
2023/03/29 01:52:30;;;;;;;;;3.80;3.00;;;;;;;;4977133;28;13743;-74
2023/03/29 01:55:00;;;;;;;;;6.00;3.00;;;;;;;;4974342;28;13482;-74
2023/03/29 01:57:26;;;;;;;;;8.00;6.00;;;;;;;;4975279;28;13587;-74
2023/03/29 01:59:53;;;;;;;;;5.50;5.50;;;;;;;;4973946;28;13552;-74
2023/03/29 02:02:20;;;;;;;;;3.00;3.00;;;;;;;;4975946;28;13694;-74
2023/03/29 02:04:49;;;;;;;;;2.60;2.60;;;;;;;;4975503;28;13482;-74
2023/03/29 02:07:15;;;;;;;;;4.00;3.00;;;;;;;;4974055;28;13448;-74
2023/03/29 02:09:41;;;;;;;;;8.00;6.00;;;;;;;;4975094;28;13530;-72
2023/03/29 02:12:07;;;;;;;;;2.75;2.75;;;;;;;;4957642;28;14575;-74
2023/03/29 02:14:33;;;;;;;;;4.40;3.00;;;;;;;;5006713;28;13502;-71
2023/03/29 02:17:13;;;;;;;;;6.25;3.00;;;;;;;;5006573;28;13512;-72
2023/03/29 02:19:39;;;;;;;;;6.00;4.00;;;;;;;;5025169;28;13549;-71
2023/03/29 02:22:09;;;;;;;;;6.00;6.00;;;;;;;;5006836;28;14178;-70
2023/03/29 02:24:35;;;;;;;;;6.80;5.20;;;;;;;;5005215;28;13478;-71
2023/03/29 02:27:01;;;;;;;;;6.40;4.80;;;;;;;;5006785;28;13538;-70
2023/03/29 02:29:27;;;;;;;;;3.00;3.00;;;;;;;;5006488;28;13512;-71
2023/03/29 02:31:54;;;;;;;;;8.40;7.00;;;;;;;;5006234;28;13408;-69
2023/03/29 02:34:30;;;;;;;;;3.00;2.00;;;;;;;;5006253;28;14259;-70
2023/03/29 02:36:58;;;;;;;;;8.75;6.00;;;;;;;;5004478;28;13415;-71
2023/03/29 02:39:25;;;;;;;;;4.00;4.00;;;;;;;;5006321;28;14379;-71
2023/03/29 02:41:52;;;;;;;;;2.75;2.75;;;;;;;;5003934;28;13564;-70
2023/03/29 02:44:20;;;;;;;;;3.25;3.25;;;;;;;;5006408;28;14302;-69
2023/03/29 02:46:48;;;;;;;;;4.00;3.00;;;;;;;;5005805;28;13486;-70
2023/03/29 02:49:13;;;;;;;;;2.50;2.50;;;;;;;;5006241;28;13383;-69
2023/03/29 02:51:39;;;;;;;;;6.75;5.50;;;;;;;;5006375;28;13488;-70
2023/03/29 02:54:07;;;;;;;;;5.00;5.00;;;;;;;;5005770;28;13557;-70
2023/03/29 02:56:47;;;;;;;;;5.60;5.60;;;;;;;;5003772;28;13439;-70
2023/03/29 02:59:12;;;;;;;;;5.20;5.20;;;;;;;;5004033;28;13422;-72
2023/03/29 03:01:38;;;;;;;;;4.00;4.00;;;;;;;;5005595;28;15278;-72
2023/03/29 03:04:04;;;;;;;;;5.60;4.00;;;;;;;;5005788;28;13605;-73
2023/03/29 03:06:29;;;;;;;;;4.00;4.00;;;;;;;;5006071;28;13406;-72
2023/03/29 03:08:54;;;;;;;;;6.00;6.00;;;;;;;;5005890;28;13500;-73
2023/03/29 03:11:20;;;;;;;;;6.50;4.00;;;;;;;;5005124;28;13507;-73
2023/03/29 03:13:45;;;;;;;;;6.67;4.67;;;;;;;;5005572;28;13563;-72
2023/03/29 03:16:10;;;;;;;;;4.00;4.00;;;;;;;;5005325;28;13426;-72
2023/03/29 03:18:36;;;;;;;;;8.00;4.00;;;;;;;;5005904;28;13517;-72
2023/03/29 03:21:03;;;;;;;;;4.00;4.00;;;;;;;;5005172;28;13942;-71
2023/03/29 03:23:29;;;;;;;;;5.00;5.00;;;;;;;;5004455;28;14170;-70
2023/03/29 03:25:54;;;;;;;;;6.00;3.60;;;;;;;;5005370;28;13805;-71
2023/03/29 03:28:20;;;;;;;;;8.00;6.50;;;;;;;;5004510;28;13635;-71
2023/03/29 03:30:46;;;;;;;;;3.50;3.50;;;;;;;;5003952;28;13577;-70
2023/03/29 03:33:11;;;;;;;;;4.00;3.00;;;;;;;;5004422;28;13556;-69
2023/03/29 03:35:37;;;;;;;;;6.75;4.00;;;;;;;;5004195;28;13435;-70
2023/03/29 03:38:03;;;;;;;;;4.00;2.60;;;;;;;;5004335;28;13638;-70
2023/03/29 03:40:28;;;;;;;;;6.00;6.00;;;;;;;;5004296;28;13551;-69
2023/03/29 03:42:53;;;;;;;;;4.33;4.33;;;;;;;;5004529;28;13464;-70
2023/03/29 03:45:19;;;;;;;;;6.00;6.00;;;;;;;;5004045;28;13548;-70
2023/03/29 03:47:44;;;;;;;;;3.33;3.00;;;;;;;;5004454;28;13470;-70
2023/03/29 03:50:10;;;;;;;;;4.50;4.00;;;;;;;;5003839;28;13673;-70
2023/03/29 03:52:35;;;;;;;;;4.50;3.75;;;;;;;;5004072;28;13560;-69
2023/03/29 03:55:03;;;;;;;;;5.67;5.67;;;;;;;;5004087;28;13518;-69
2023/03/29 03:57:28;;;;;;;;;5.75;3.50;;;;;;;;5004843;28;13274;-69
2023/03/29 03:59:53;;;;;;;;;5.00;5.00;;;;;;;;5001321;28;13781;-70
2023/03/29 04:02:19;;;;;;;;;6.00;6.00;;;;;;;;5004206;28;13436;-70
2023/03/29 04:04:45;;;;;;;;;8.00;6.00;;;;;;;;5004015;28;13553;-69
2023/03/29 04:07:11;;;;;;;;;6.00;6.00;;;;;;;;5003796;28;13788;-70
2023/03/29 04:09:37;;;;;;;;;8.40;7.20;;;;;;;;5004220;28;14325;-70
2023/03/29 04:12:03;;;;;;;;;6.00;4.50;;;;;;;;5004128;28;13662;-69
2023/03/29 04:14:30;;;;;;;;;5.00;5.00;;;;;;;;5004419;28;13640;-70
2023/03/29 04:16:56;;;;;;;;;3.00;3.00;;;;;;;;5001575;28;13697;-70
2023/03/29 04:19:21;;;;;;;;;6.00;6.00;;;;;;;;5005208;28;13534;-70
2023/03/29 04:21:48;;;;;;;;;8.00;6.00;;;;;;;;5005442;28;14238;-69
2023/03/29 04:24:14;;;;;;;;;5.80;5.80;;;;;;;;5004778;28;13424;-70
2023/03/29 04:26:39;;;;;;;;;6.25;6.00;;;;;;;;5018731;28;13400;-70
2023/03/29 04:29:05;;;;;;;;;7.00;6.00;;;;;;;;5025019;28;13406;-69
2023/03/29 04:31:31;;;;;;;;;6.00;6.00;;;;;;;;5020828;28;13583;-69
2023/03/29 04:33:56;;;;;;;;;7.25;7.25;;;;;;;;5005396;28;13441;-70
2023/03/29 04:36:21;;;;;;;;;7.00;5.50;;;;;;;;5005213;28;13498;-70
2023/03/29 04:38:47;;;;;;;;;7.00;7.00;;;;;;;;5005384;28;13366;-69
2023/03/29 04:41:14;;;;;;;;;6.00;6.00;;;;;;;;5004580;28;14233;-69
2023/03/29 04:43:40;;;;;;;;;4.80;4.80;;;;;;;;5004924;28;13422;-69
2023/03/29 04:46:06;;;;;;;;;10.00;7.50;;;;;;;;5004960;28;13411;-70
2023/03/29 04:48:32;;;;;;;;;6.00;5.00;;;;;;;;5006989;28;13573;-71
2023/03/29 04:50:58;;;;;;;;;7.75;5.00;;;;;;;;5008747;28;13419;-70
2023/03/29 04:53:23;;;;;;;;;6.00;6.00;;;;;;;;5036248;22;13587;-69
2023/03/29 17:48:31;;;;;;;;;12.75;12.75;;;;;;;;5081405;27;13629;-69
2023/03/29 17:50:57;;;;;;;;;13.00;11.00;;;;;;;;5080469;28;13524;-67
2023/03/29 17:53:22;;;;;;;;;9.00;9.00;;;;;;;;5082150;28;13481;-68
2023/03/29 17:55:47;;;;;;;;;15.25;15.25;;;;;;;;5082579;28;13464;-68
2023/03/29 17:58:13;;;;;;;;;20.25;16.75;;;;;;;;5081833;28;13506;-68
2023/03/29 18:00:38;;;;;;;;;16.00;15.00;;;;;;;;5095203;28;13531;-69
2023/03/29 18:03:03;;;;;;;;;9.00;9.00;;;;;;;;5098927;28;13515;-70
2023/03/29 18:05:28;;;;;;;;;13.00;9.33;;;;;;;;5102147;28;13533;-69
2023/03/29 18:07:54;;;;;;;;;8.00;7.00;;;;;;;;5102934;28;13593;-68
2023/03/29 18:10:19;;;;;;;;;8.00;7.00;;;;;;;;5088917;28;13435;-70
2023/03/29 18:12:45;;;;;;;;;6.67;5.67;;;;;;;;5084731;28;13454;-69
2023/03/29 18:15:10;;;;;;;;;5.00;5.00;;;;;;;;5081732;28;13457;-69
2023/03/29 18:17:36;;;;;;;;;5.00;5.00;;;;;;;;5081974;28;13485;-69
2023/03/29 18:20:02;;;;;;;;;12.50;8.75;;;;;;;;5081895;28;13452;-69
2023/03/29 18:22:32;;;;;;;;;9.00;9.00;;;;;;;;5079558;28;13541;-68
2023/03/29 18:24:57;;;;;;;;;7.25;7.25;;;;;;;;5082128;28;13471;-69
2023/03/29 18:27:22;;;;;;;;;6.75;6.75;;;;;;;;5081321;28;13548;-70
2023/03/29 18:29:47;;;;;;;;;6.33;6.33;;;;;;;;5081467;28;13584;-69
2023/03/29 18:32:13;;;;;;;;;9.00;8.00;;;;;;;;5080993;28;13456;-70
2023/03/29 18:34:38;;;;;;;;;9.00;8.00;;;;;;;;5081789;28;13463;-71
2023/03/29 18:37:04;;;;;;;;;6.67;6.00;;;;;;;;5081285;28;13449;-67
2023/03/29 18:39:30;;;;;;;;;7.00;7.00;;;;;;;;5081359;28;14237;-71
2023/03/29 18:41:56;;;;;;;;;7.50;6.75;;;;;;;;5078810;28;13543;-70
2023/03/29 18:44:26;;;;;;;;;4.00;4.00;;;;;;;;5081473;28;13550;-71
2023/03/29 18:46:51;;;;;;;;;9.00;8.00;;;;;;;;5088555;28;13387;-71
2023/03/29 18:49:17;;;;;;;;;6.50;6.50;;;;;;;;5101178;27;14096;-72
2023/03/29 18:51:45;;;;;;;;;7.75;4.00;;;;;;;;5100400;28;13439;-74
2023/03/29 18:54:10;;;;;;;;;7.00;5.00;;;;;;;;5101762;28;13383;-78
2023/03/29 18:56:36;;;;;;;;;6.00;6.00;;;;;;;;5101607;28;13470;-75
2023/03/29 18:59:04;;;;;;;;;7.75;4.00;;;;;;;;5092366;28;13361;-75
2023/03/29 19:01:30;;;;;;;;;6.00;6.00;;;;;;;;5088119;28;13415;-79
2023/03/29 19:03:55;;;;;;;;;4.00;4.00;;;;;;;;5108577;28;13338;-75
2023/03/29 19:06:21;;;;;;;;;9.33;9.33;;;;;;;;5081597;28;13396;-75
2023/03/29 19:08:46;;;;;;;;;8.25;8.25;;;;;;;;5086260;28;13226;-73
2023/03/29 19:11:13;;;;;;;;;13.75;7.25;;;;;;;;5086345;28;13426;-76
2023/03/29 19:13:41;;;;;;;;;6.20;6.20;;;;;;;;5085982;28;13976;-76
2023/03/29 19:16:06;;;;;;;;;7.00;6.50;;;;;;;;5086070;28;13416;-72
2023/03/29 19:18:32;;;;;;;;;9.00;7.00;;;;;;;;5087316;28;13340;-74
2023/03/29 19:20:57;;;;;;;;;5.00;4.00;;;;;;;;5102855;28;13374;-75
2023/03/29 19:23:25;;;;;;;;;6.00;6.00;;;;;;;;5087525;28;13421;-69
2023/03/29 19:25:59;;;;;;;;;7.00;7.00;;;;;;;;5087596;28;13522;-74
2023/03/29 19:28:24;;;;;;;;;8.20;7.20;;;;;;;;5087768;28;13433;-72
2023/03/29 19:30:50;;;;;;;;;6.00;6.00;;;;;;;;5087687;28;13361;-73
2023/03/29 19:33:15;;;;;;;;;8.00;8.00;;;;;;;;5086517;28;13705;-74
2023/03/29 19:35:41;;;;;;;;;8.50;6.50;;;;;;;;5097797;28;13927;-73
2023/03/29 19:38:06;;;;;;;;;7.00;7.00;;;;;;;;5107560;28;13408;-75
2023/03/29 19:40:32;;;;;;;;;9.00;7.50;;;;;;;;5105197;28;14140;-75
2023/03/29 19:42:57;;;;;;;;;8.33;7.67;;;;;;;;5086066;28;13344;-75
2023/03/29 19:45:22;;;;;;;;;9.67;8.33;;;;;;;;5087473;28;13381;-73
2023/03/29 19:47:52;;;;;;;;;9.50;8.00;;;;;;;;5087014;28;13428;-73
2023/03/29 19:50:17;;;;;;;;;13.50;9.00;;;;;;;;5086598;28;13527;-73
2023/03/29 19:52:43;;;;;;;;;10.80;8.00;;;;;;;;5067526;28;13412;-75
2023/03/29 19:55:09;;;;;;;;;12.00;12.00;;;;;;;;5087093;28;13420;-73
2023/03/29 19:57:34;;;;;;;;;13.50;7.50;;;;;;;;5086141;28;13488;-73
2023/03/29 20:00:00;;;;;;;;;9.67;7.67;;;;;;;;5068524;28;14149;-78
2023/03/29 20:02:26;;;;;;;;;13.00;11.00;;;;;;;;5086113;28;13357;-73
2023/03/29 20:04:51;;;;;;;;;9.50;9.00;;;;;;;;5071782;28;13446;-73
2023/03/29 20:07:17;;;;;;;;;9.00;8.00;;;;;;;;5088771;28;13470;-72
2023/03/29 20:09:43;;;;;;;;;8.00;8.00;;;;;;;;5106567;28;14182;-74
2023/03/29 20:12:08;;;;;;;;;14.00;10.00;;;;;;;;5079769;28;13466;-74
2023/03/29 20:14:36;;;;;;;;;10.00;9.00;;;;;;;;5066342;28;13531;-74
2023/03/29 20:17:02;;;;;;;;;7.60;6.60;;;;;;;;5066000;28;13564;-73
2023/03/29 20:19:28;;;;;;;;;9.00;9.00;;;;;;;;5065998;28;13337;-73
2023/03/29 20:21:56;;;;;;;;;10.00;7.60;;;;;;;;5066032;28;13229;-75
2023/03/29 20:24:22;;;;;;;;;9.00;9.00;;;;;;;;5065767;28;13456;-74
2023/03/29 20:26:48;;;;;;;;;13.00;9.20;;;;;;;;5065776;28;13360;-73
2023/03/29 20:29:14;;;;;;;;;10.00;8.50;;;;;;;;5066243;28;14216;-71
2023/03/29 20:31:39;;;;;;;;;8.00;8.00;;;;;;;;5048471;28;13406;-72
2023/03/29 20:34:05;;;;;;;;;9.75;9.00;;;;;;;;5048311;28;14056;-71
2023/03/29 20:36:30;;;;;;;;;10.00;9.00;;;;;;;;5099729;28;13513;-72
2023/03/29 20:38:57;;;;;;;;;10.25;9.25;;;;;;;;5087307;28;13378;-71
2023/03/29 20:41:23;;;;;;;;;10.50;10.00;;;;;;;;5085469;28;13367;-71
2023/03/29 20:43:57;;;;;;;;;9.25;8.00;;;;;;;;5086013;28;14263;-73
2023/03/29 20:46:22;;;;;;;;;8.25;7.50;;;;;;;;5067612;28;13492;-74
2023/03/29 20:48:53;;;;;;;;;9.50;8.50;;;;;;;;5085869;28;13517;-74
2023/03/29 20:51:26;;;;;;;;;6.50;6.50;;;;;;;;5085801;28;13521;-74
2023/03/29 20:53:52;;;;;;;;;9.40;9.00;;;;;;;;5085850;28;13443;-74
2023/03/29 20:56:19;;;;;;;;;8.75;8.50;;;;;;;;5085364;28;13334;-73
2023/03/29 20:58:45;;;;;;;;;9.00;8.00;;;;;;;;5085755;28;13342;-74
2023/03/29 21:01:13;;;;;;;;;8.25;8.25;;;;;;;;5085116;28;13370;-74
2023/03/29 21:03:38;;;;;;;;;56.00;42.50;;;;;;;;5085271;28;13470;-74
2023/03/29 21:06:03;;;;;;;;;15.00;15.00;;;;;;;;5098322;28;13590;-78
2023/03/29 21:08:29;;;;;;;;;9.00;8.00;;;;;;;;5105784;28;14109;-78
2023/03/29 21:10:55;;;;;;;;;9.75;8.00;;;;;;;;5086869;28;13320;-78
2023/03/29 21:13:20;;;;;;;;;13.00;10.00;;;;;;;;5087500;28;13399;-77
2023/03/29 21:15:46;;;;;;;;;7.33;5.67;;;;;;;;5105620;28;13380;-77
2023/03/29 21:18:11;;;;;;;;;10.33;9.33;;;;;;;;5104952;28;13476;-78
2023/03/29 21:20:36;;;;;;;;;10.00;7.00;;;;;;;;5105477;28;13373;-77
2023/03/29 21:23:02;;;;;;;;;8.25;7.00;;;;;;;;5098646;28;13403;-78
2023/03/29 21:25:27;;;;;;;;;7.75;7.75;;;;;;;;5085041;28;13531;-78
2023/03/29 21:27:53;;;;;;;;;7.50;7.50;;;;;;;;5085063;28;13419;-76
2023/03/29 21:30:18;;;;;;;;;7.00;7.00;;;;;;;;5085142;28;13354;-77
2023/03/29 21:32:43;;;;;;;;;8.25;7.00;;;;;;;;5085146;28;13477;-76
2023/03/29 21:35:09;;;;;;;;;7.00;5.00;;;;;;;;5090208;28;13579;-73
2023/03/29 21:37:34;;;;;;;;;10.75;8.75;;;;;;;;5105005;28;13362;-73
2023/03/29 21:40:04;;;;;;;;;5.00;5.00;;;;;;;;5105517;28;13364;-73
2023/03/29 21:42:29;;;;;;;;;9.80;7.80;;;;;;;;5105756;28;13411;-71
2023/03/29 21:44:55;;;;;;;;;8.00;7.00;;;;;;;;5105929;28;13468;-72
2023/03/29 21:47:20;;;;;;;;;9.75;8.00;;;;;;;;5105145;28;13520;-71
2023/03/29 21:49:45;;;;;;;;;9.00;7.25;;;;;;;;5103877;28;13360;-72
2023/03/29 21:52:10;;;;;;;;;8.00;7.25;;;;;;;;5086191;28;13356;-72
2023/03/29 21:54:36;;;;;;;;;9.00;8.00;;;;;;;;5105236;28;13986;-73
2023/03/29 21:57:01;;;;;;;;;13.00;11.00;;;;;;;;5073455;22;13535;-74
2023/03/29 21:59:26;;;;;;;;;13.75;9.75;;;;;;;;5025885;28;13577;-73
2023/03/29 22:01:52;;;;;;;;;8.25;7.75;;;;;;;;5026447;28;13569;-73
2023/03/29 22:04:17;;;;;;;;;7.00;5.67;;;;;;;;5025172;28;14375;-73
2023/03/29 22:06:42;;;;;;;;;8.00;8.00;;;;;;;;5024688;28;13651;-73
2023/03/29 22:09:09;;;;;;;;;7.00;7.00;;;;;;;;5025480;28;13456;-73
2023/03/29 22:11:37;;;;;;;;;9.00;7.50;;;;;;;;5025100;28;13586;-74
2023/03/29 22:14:02;;;;;;;;;11.25;9.00;;;;;;;;5025068;28;13527;-73
2023/03/29 22:16:30;;;;;;;;;7.00;7.00;;;;;;;;5025050;28;13517;-73
2023/03/29 22:18:55;;;;;;;;;8.00;6.80;;;;;;;;5025055;28;13479;-72
2023/03/29 22:21:22;;;;;;;;;7.00;7.00;;;;;;;;5025016;28;13476;-73
2023/03/29 22:23:48;;;;;;;;;7.00;7.00;;;;;;;;5025125;28;13432;-73
2023/03/29 22:26:14;;;;;;;;;10.60;8.80;;;;;;;;5024879;28;13582;-73
2023/03/29 22:28:40;;;;;;;;;12.50;11.00;;;;;;;;5021623;28;13628;-73
2023/03/29 22:31:10;;;;;;;;;7.20;6.00;;;;;;;;5026291;28;13530;-73
2023/03/29 22:33:35;;;;;;;;;14.00;11.00;;;;;;;;5026750;28;13525;-73
2023/03/29 22:36:01;;;;;;;;;8.00;7.80;;;;;;;;5042457;28;13589;-73
2023/03/29 22:38:27;;;;;;;;;8.25;8.00;;;;;;;;5049540;28;14160;-73
2023/03/29 22:40:53;;;;;;;;;11.75;9.50;;;;;;;;5050004;28;13459;-73
2023/03/29 22:43:18;;;;;;;;;13.00;12.00;;;;;;;;5049657;28;14240;-73
2023/03/29 22:45:43;;;;;;;;;15.33;13.00;;;;;;;;5049805;28;13585;-73
2023/03/29 22:48:08;;;;;;;;;15.50;14.50;;;;;;;;5049376;28;13578;-73
2023/03/29 22:50:34;;;;;;;;;14.00;13.25;;;;;;;;5049096;28;13656;-73
2023/03/29 22:52:59;;;;;;;;;9.25;8.00;;;;;;;;5049415;28;13713;-73
2023/03/29 22:55:25;;;;;;;;;8.25;7.75;;;;;;;;5049532;28;13449;-73
2023/03/29 22:57:50;;;;;;;;;8.00;8.00;;;;;;;;5049941;28;13580;-73
2023/03/29 23:00:15;;;;;;;;;14.00;12.00;;;;;;;;5049610;28;13538;-73
2023/03/29 23:02:40;;;;;;;;;9.00;9.00;;;;;;;;5049427;28;13508;-73
2023/03/29 23:05:06;;;;;;;;;10.75;8.00;;;;;;;;5049006;28;13506;-73
2023/03/29 23:07:35;;;;;;;;;7.00;7.00;;;;;;;;5047876;28;13487;-73
2023/03/29 23:10:00;;;;;;;;;9.00;9.00;;;;;;;;5049421;28;13479;-73
2023/03/29 23:12:26;;;;;;;;;10.75;9.25;;;;;;;;5049215;28;13457;-72
2023/03/29 23:14:51;;;;;;;;;7.50;7.50;;;;;;;;5049176;28;13494;-72
2023/03/29 23:17:17;;;;;;;;;11.20;7.00;;;;;;;;5049083;28;13542;-72
2023/03/29 23:19:43;;;;;;;;;11.00;9.00;;;;;;;;5049008;28;13605;-72
2023/03/29 23:22:08;;;;;;;;;8.50;8.50;;;;;;;;5048740;28;14297;-73
2023/03/29 23:24:33;;;;;;;;;7.75;7.75;;;;;;;;5048609;28;13522;-72
2023/03/29 23:27:00;;;;;;;;;7.67;7.67;;;;;;;;5049020;28;13471;-73
2023/03/29 23:29:25;;;;;;;;;12.00;11.00;;;;;;;;5048891;28;14191;-72
2023/03/29 23:31:50;;;;;;;;;8.75;7.75;;;;;;;;5048716;28;13475;-73
2023/03/29 23:34:17;;;;;;;;;8.25;6.25;;;;;;;;5048783;28;13463;-73
2023/03/29 23:36:42;;;;;;;;;7.40;6.40;;;;;;;;5048554;28;14268;-73
2023/03/29 23:39:07;;;;;;;;;11.50;9.00;;;;;;;;5048429;28;13473;-73
2023/03/29 23:41:32;;;;;;;;;7.25;7.25;;;;;;;;5048314;28;14272;-73
2023/03/29 23:43:58;;;;;;;;;9.00;6.67;;;;;;;;5047071;28;13457;-73
2023/03/29 23:46:23;;;;;;;;;6.33;6.33;;;;;;;;5049013;28;14556;-73
2023/03/29 23:48:49;;;;;;;;;6.75;6.75;;;;;;;;5048767;28;13462;-73
2023/03/29 23:51:16;;;;;;;;;8.00;8.00;;;;;;;;5048787;28;13443;-73
2023/03/29 23:53:42;;;;;;;;;11.60;10.20;;;;;;;;5047297;28;13506;-73
2023/03/29 23:56:07;;;;;;;;;8.00;8.00;;;;;;;;5047789;28;13514;-74
2023/03/29 23:58:34;;;;;;;;;9.00;7.50;;;;;;;;5048366;28;13435;-73
